Wolf 59 — CGBP — position and weather

sailwx.info

Track history (hours):
 
Tides and Currents Weather Stations Pressure Air Temp Water Temp Dewpoint Dewpoint Depression Visibility Wind Speed Wind Dir Waves Ship Positions

Wolf 59

Last reported at 2014-Oct-01 19:33 UTC. Time now 2014-Oct-01 20:17 UTC.
Position N 48°43' W 123°26'.

Length 33 m; draft 2.6 m.

Type: Military. MMSI: 316011515.

Date/timePositionNaut miles runAvg speedWind from/ knotsBaromVisibWave heightAir tempDewpointWater temp
2014-Oct-01 19:33N 48°43' W 123°26'9 7.1
2014-Oct-01 18:16N 48°49' W 123°15'5 6.6
2014-Oct-01 17:31N 48°51' W 123°22'3 3.2
2014-Oct-01 16:32N 48°49' W 123°18'2 2.1
2014-Oct-01 15:34N 48°50' W 123°21'6 5.8
2014-Oct-01 14:33N 48°45' W 123°17'1313.0
2014-Oct-01 13:33N 48°32' W 123°11'9 9.5
2014-Oct-01 12:34N 48°23' W 123°14'6 6.2
2014-Oct-01 11:34N 48°19' W 123°21'0 0.2
2014-Oct-01 10:34N 48°19' W 123°21'1 1.5
2014-Oct-01 09:34N 48°19' W 123°23'7 6.8
2014-Oct-01 08:34N 48°24' W 123°15'10 9.8
2014-Oct-01 07:34N 48°34' W 123°13'10 9.6
2014-Oct-01 06:33N 48°43' W 123°17'8 8.0
2014-Oct-01 05:33N 48°50' W 123°22'11 9.4
2014-Oct-01 04:26N 48°58' W 123°34'3 3.9
2014-Oct-01 03:33N 49°01' W 123°35'1716.6
2014-Oct-01 02:33N 49°14' W 123°50'12 9.7
2014-Oct-01 01:16N 49°16' W 124°09'0 0.0
2014-Sep-30 21:30N 49°16' W 124°09'0 0.3
2014-Sep-30 20:33N 49°16' W 124°09'1 0.7
2014-Sep-30 19:33N 49°16' W 124°10'1 0.4
2014-Sep-30 18:17N 49°16' W 124°09'0 0.1
2014-Sep-30 17:28N 49°16' W 124°09'0 0.2
2014-Sep-30 16:34N 49°16' W 124°09'0 0.0
2014-Sep-30 15:33N 49°16' W 124°09'6 5.5
2014-Sep-30 14:32N 49°16' W 124°01'8 8.3
2014-Sep-30 13:33N 49°14' W 123°48'8 8.4
2014-Sep-30 12:34N 49°11' W 123°37'9 9.2
2014-Sep-30 11:34N 49°06' W 123°25'1010.3
2014-Sep-30 10:34N 48°59' W 123°12'1111.1
2014-Sep-30 09:33N 48°52' W 122°60'8 8.3
2014-Sep-30 08:33N 48°43' W 122°59'5 4.9
2014-Sep-30 07:33N 48°39' W 123°02'6 5.7
2014-Sep-30 06:33N 48°33' W 122°60'3 2.7
2014-Sep-30 05:34N 48°36' W 122°58'3 2.7
2014-Sep-30 04:33N 48°38' W 122°59'0 0.0
2014-Sep-30 03:33N 48°38' W 122°59'0 0.0
2014-Sep-30 02:33N 48°38' W 122°59'0 0.0
2014-Sep-30 01:33N 48°38' W 122°59'0 0.0
2014-Sep-30 00:34N 48°38' W 122°59'1 1.0
2014-Sep-29 23:34N 48°37' W 122°58'4 3.5
2014-Sep-29 22:34N 48°35' W 122°54'10 9.9
2014-Sep-29 21:33N 48°26' W 122°57'1010.1
2014-Sep-29 20:33N 48°21' W 123°10'10 9.5
2014-Sep-29 19:33N 48°21' W 123°25'5 4.7
2014-Sep-29 18:30N 48°26' W 123°26'0 0.3
2014-Sep-29 17:33N 48°26' W 123°26'0 0.0
2014-Sep-29 16:33N 48°26' W 123°26'0 0.0
2014-Sep-29 15:33N 48°26' W 123°26'  
2014-Sep-26 19:15N 48°26' W 123°26'2 2.6
2014-Sep-26 18:30N 48°24' W 123°27'0 0.4
2014-Sep-26 17:33N 48°24' W 123°27'7 7.0
2014-Sep-26 16:33N 48°24' W 123°17'1 1.4
2014-Sep-26 15:33N 48°25' W 123°17'5 4.9
2014-Sep-26 14:34N 48°29' W 123°12'1111.1
2014-Sep-26 13:32N 48°21' W 122°59'9 9.2
2014-Sep-26 12:33N 48°25' W 122°47'1010.0
2014-Sep-26 11:33N 48°35' W 122°46'9 9.2
2014-Sep-26 10:33N 48°45' W 122°47'9 8.9
2014-Sep-26 09:33N 48°49' W 122°59'9 9.5
2014-Sep-26 08:33N 48°55' W 123°10'9 9.2
2014-Sep-26 07:33N 49°01' W 123°21'8 8.5
2014-Sep-26 06:33N 49°09' W 123°23'1111.0
2014-Sep-26 05:34N 49°19' W 123°16'6 5.5
2014-Sep-26 04:30N 49°18' W 123°07'0 0.0
2014-Sep-26 03:30N 49°18' W 123°07'3 3.0
2014-Sep-26 02:33N 49°19' W 123°11'1 0.8
2014-Sep-26 01:33N 49°19' W 123°10'1 0.6
2014-Sep-26 00:33N 49°19' W 123°11'9 9.4
2014-Sep-25 23:33N 49°12' W 123°19'9 9.1
2014-Sep-25 22:33N 49°02' W 123°18'9 8.7
2014-Sep-25 21:33N 48°54' W 123°17'9 1.0
2014-Sep-25 12:29N 48°45' W 123°20'7 7.9
2014-Sep-25 11:33N 48°39' W 123°14'9 9.0
2014-Sep-25 10:33N 48°30' W 123°10'8 8.5
2014-Sep-25 09:33N 48°23' W 123°17'8 8.0
2014-Sep-25 08:33N 48°18' W 123°27'6 6.1
2014-Sep-25 07:33N 48°23' W 123°21'8 7.6
2014-Sep-25 06:33N 48°27' W 123°12'1111.0
2014-Sep-25 05:33N 48°38' W 123°15'9 8.8
2014-Sep-25 04:33N 48°46' W 123°22'3 2.6
2014-Sep-25 03:28N 48°45' W 123°18'8 9.2
2014-Sep-25 02:33N 48°45' W 123°05'7 6.6
2014-Sep-25 01:33N 48°52' W 123°08'3 3.0
2014-Sep-25 00:34N 48°52' W 123°12'1 0.6
2014-Sep-24 23:33N 48°53' W 123°12'0 0.3
2014-Sep-24 22:33N 48°53' W 123°12'5 4.5
2014-Sep-24 21:33N 48°52' W 123°19'2 1.7
2014-Sep-24 20:33N 48°51' W 123°22'5 4.8
2014-Sep-24 19:31N 48°46' W 123°21'9 9.1
2014-Sep-24 18:33N 48°40' W 123°30'1 0.9
2014-Sep-24 17:33N 48°40' W 123°29'0 0.2
2014-Sep-24 16:33N 48°40' W 123°29'1 0.9
2014-Sep-24 15:33N 48°40' W 123°30'7 6.8
2014-Sep-24 14:33N 48°47' W 123°33'8 8.2
2014-Sep-24 13:32N 48°54' W 123°38'7 6.8
2014-Sep-24 12:32N 49°00' W 123°44'4 3.5
2014-Sep-24 11:32N 49°02' W 123°39'8 8.3
2014-Sep-24 10:31N 48°55' W 123°30'9 8.5
2014-Sep-24 09:29N 48°50' W 123°20'8 8.5
2014-Sep-24 08:33N 48°43' W 123°13'10 9.9
2014-Sep-24 07:33N 48°49' W 123°00'1 0.9
2014-Sep-24 06:33N 48°48' W 122°60'9 9.0
2014-Sep-24 05:33N 48°43' W 123°11'8 8.1
2014-Sep-24 04:33N 48°35' W 123°13'9 9.0
2014-Sep-24 03:34N 48°26' W 123°10'8 7.9
2014-Sep-24 02:33N 48°22' W 123°20'5 5.4
2014-Sep-24 01:33N 48°19' W 123°27'9 9.2
2014-Sep-24 00:33N 48°24' W 123°16'4 4.4
2014-Sep-23 23:33N 48°28' W 123°14'1 0.5
2014-Sep-23 22:33N 48°29' W 123°15'1 1.2
2014-Sep-23 21:33N 48°28' W 123°15'0 0.2
2014-Sep-23 20:33N 48°27' W 123°15'7 6.9
2014-Sep-23 19:33N 48°22' W 123°21'5 5.3
2014-Sep-23 18:33N 48°26' W 123°26'0 0.2
2014-Sep-23 17:33N 48°26' W 123°26'0 0.5
2014-Sep-23 16:33N 48°26' W 123°27'0 0.1
2014-Sep-23 15:33N 48°26' W 123°27'4 4.3
2014-Sep-23 14:33N 48°23' W 123°23'10 9.6
2014-Sep-23 13:33N 48°30' W 123°13'1111.2
2014-Sep-23 12:33N 48°41' W 123°16'9 8.9
2014-Sep-23 11:33N 48°42' W 123°29'8 7.7
2014-Sep-23 10:33N 48°44' W 123°18'1111.3
2014-Sep-23 09:33N 48°34' W 123°12'1110.6
2014-Sep-23 08:34N 48°23' W 123°14'3 3.0
2014-Sep-23 07:34N 48°23' W 123°18'8 8.5
2014-Sep-23 06:33N 48°31' W 123°13'1312.5
2014-Sep-23 05:33N 48°43' W 123°17'8 7.7
2014-Sep-23 04:33N 48°43' W 123°28'8 8.5
2014-Sep-23 03:34N 48°43' W 123°15'1010.0
2014-Sep-23 02:33N 48°33' W 123°12'10 9.8
2014-Sep-23 01:33N 48°23' W 123°13'5 5.3
2014-Sep-23 00:33N 48°20' W 123°19'  
Track history (hours):
 
Tides and Currents Weather Stations Pressure Air Temp Water Temp Dewpoint Dewpoint Depression Visibility Wind Speed Wind Dir Waves Ship Positions

Wolf 59

Last reported at 2014-Oct-01 19:33 UTC. Time now 2014-Oct-01 20:17 UTC.
Position N 48°43' W 123°26'.

Length 33 m; draft 2.6 m.

Type: Military. MMSI: 316011515.

Date/timePositionNaut miles runAvg speedWind from/ knotsBaromVisibWave heightAir tempDewpointWater temp
2014-Oct-01 19:33N 48°43' W 123°26'9 7.1
2014-Oct-01 18:16N 48°49' W 123°15'5 6.6
2014-Oct-01 17:31N 48°51' W 123°22'3 3.2
2014-Oct-01 16:32N 48°49' W 123°18'2 2.1
2014-Oct-01 15:34N 48°50' W 123°21'6 5.8
2014-Oct-01 14:33N 48°45' W 123°17'1313.0
2014-Oct-01 13:33N 48°32' W 123°11'9 9.5
2014-Oct-01 12:34N 48°23' W 123°14'6 6.2
2014-Oct-01 11:34N 48°19' W 123°21'0 0.2
2014-Oct-01 10:34N 48°19' W 123°21'1 1.5
2014-Oct-01 09:34N 48°19' W 123°23'7 6.8
2014-Oct-01 08:34N 48°24' W 123°15'10 9.8
2014-Oct-01 07:34N 48°34' W 123°13'10 9.6
2014-Oct-01 06:33N 48°43' W 123°17'8 8.0
2014-Oct-01 05:33N 48°50' W 123°22'11 9.4
2014-Oct-01 04:26N 48°58' W 123°34'3 3.9
2014-Oct-01 03:33N 49°01' W 123°35'1716.6
2014-Oct-01 02:33N 49°14' W 123°50'12 9.7
2014-Oct-01 01:16N 49°16' W 124°09'0 0.0
2014-Sep-30 21:30N 49°16' W 124°09'0 0.3
2014-Sep-30 20:33N 49°16' W 124°09'1 0.7
2014-Sep-30 19:33N 49°16' W 124°10'1 0.4
2014-Sep-30 18:17N 49°16' W 124°09'0 0.1
2014-Sep-30 17:28N 49°16' W 124°09'0 0.2
2014-Sep-30 16:34N 49°16' W 124°09'0 0.0
2014-Sep-30 15:33N 49°16' W 124°09'6 5.5
2014-Sep-30 14:32N 49°16' W 124°01'8 8.3
2014-Sep-30 13:33N 49°14' W 123°48'8 8.4
2014-Sep-30 12:34N 49°11' W 123°37'9 9.2
2014-Sep-30 11:34N 49°06' W 123°25'1010.3
2014-Sep-30 10:34N 48°59' W 123°12'1111.1
2014-Sep-30 09:33N 48°52' W 122°60'8 8.3
2014-Sep-30 08:33N 48°43' W 122°59'5 4.9
2014-Sep-30 07:33N 48°39' W 123°02'6 5.7
2014-Sep-30 06:33N 48°33' W 122°60'3 2.7
2014-Sep-30 05:34N 48°36' W 122°58'3 2.7
2014-Sep-30 04:33N 48°38' W 122°59'0 0.0
2014-Sep-30 03:33N 48°38' W 122°59'0 0.0
2014-Sep-30 02:33N 48°38' W 122°59'0 0.0
2014-Sep-30 01:33N 48°38' W 122°59'0 0.0
2014-Sep-30 00:34N 48°38' W 122°59'1 1.0
2014-Sep-29 23:34N 48°37' W 122°58'4 3.5
2014-Sep-29 22:34N 48°35' W 122°54'10 9.9
2014-Sep-29 21:33N 48°26' W 122°57'1010.1
2014-Sep-29 20:33N 48°21' W 123°10'10 9.5
2014-Sep-29 19:33N 48°21' W 123°25'5 4.7
2014-Sep-29 18:30N 48°26' W 123°26'0 0.3
2014-Sep-29 17:33N 48°26' W 123°26'0 0.0
2014-Sep-29 16:33N 48°26' W 123°26'0 0.0
2014-Sep-29 15:33N 48°26' W 123°26'  
2014-Sep-26 19:15N 48°26' W 123°26'2 2.6
2014-Sep-26 18:30N 48°24' W 123°27'0 0.4
2014-Sep-26 17:33N 48°24' W 123°27'7 7.0
2014-Sep-26 16:33N 48°24' W 123°17'1 1.4
2014-Sep-26 15:33N 48°25' W 123°17'5 4.9
2014-Sep-26 14:34N 48°29' W 123°12'1111.1
2014-Sep-26 13:32N 48°21' W 122°59'9 9.2
2014-Sep-26 12:33N 48°25' W 122°47'1010.0
2014-Sep-26 11:33N 48°35' W 122°46'9 9.2
2014-Sep-26 10:33N 48°45' W 122°47'9 8.9
2014-Sep-26 09:33N 48°49' W 122°59'9 9.5
2014-Sep-26 08:33N 48°55' W 123°10'9 9.2
2014-Sep-26 07:33N 49°01' W 123°21'8 8.5
2014-Sep-26 06:33N 49°09' W 123°23'1111.0
2014-Sep-26 05:34N 49°19' W 123°16'6 5.5
2014-Sep-26 04:30N 49°18' W 123°07'0 0.0
2014-Sep-26 03:30N 49°18' W 123°07'3 3.0
2014-Sep-26 02:33N 49°19' W 123°11'1 0.8
2014-Sep-26 01:33N 49°19' W 123°10'1 0.6
2014-Sep-26 00:33N 49°19' W 123°11'9 9.4
2014-Sep-25 23:33N 49°12' W 123°19'9 9.1
2014-Sep-25 22:33N 49°02' W 123°18'9 8.7
2014-Sep-25 21:33N 48°54' W 123°17'9 1.0
2014-Sep-25 12:29N 48°45' W 123°20'7 7.9
2014-Sep-25 11:33N 48°39' W 123°14'9 9.0
2014-Sep-25 10:33N 48°30' W 123°10'8 8.5
2014-Sep-25 09:33N 48°23' W 123°17'8 8.0
2014-Sep-25 08:33N 48°18' W 123°27'6 6.1
2014-Sep-25 07:33N 48°23' W 123°21'8 7.6
2014-Sep-25 06:33N 48°27' W 123°12'1111.0
2014-Sep-25 05:33N 48°38' W 123°15'9 8.8
2014-Sep-25 04:33N 48°46' W 123°22'3 2.6
2014-Sep-25 03:28N 48°45' W 123°18'8 9.2
2014-Sep-25 02:33N 48°45' W 123°05'7 6.6
2014-Sep-25 01:33N 48°52' W 123°08'3 3.0
2014-Sep-25 00:34N 48°52' W 123°12'1 0.6
2014-Sep-24 23:33N 48°53' W 123°12'0 0.3
2014-Sep-24 22:33N 48°53' W 123°12'5 4.5
2014-Sep-24 21:33N 48°52' W 123°19'2 1.7
2014-Sep-24 20:33N 48°51' W 123°22'5 4.8
2014-Sep-24 19:31N 48°46' W 123°21'9 9.1
2014-Sep-24 18:33N 48°40' W 123°30'1 0.9
2014-Sep-24 17:33N 48°40' W 123°29'0 0.2
2014-Sep-24 16:33N 48°40' W 123°29'1 0.9
2014-Sep-24 15:33N 48°40' W 123°30'7 6.8
2014-Sep-24 14:33N 48°47' W 123°33'8 8.2
2014-Sep-24 13:32N 48°54' W 123°38'7 6.8
2014-Sep-24 12:32N 49°00' W 123°44'4 3.5
2014-Sep-24 11:32N 49°02' W 123°39'8 8.3
2014-Sep-24 10:31N 48°55' W 123°30'9 8.5
2014-Sep-24 09:29N 48°50' W 123°20'8 8.5
2014-Sep-24 08:33N 48°43' W 123°13'10 9.9
2014-Sep-24 07:33N 48°49' W 123°00'1 0.9
2014-Sep-24 06:33N 48°48' W 122°60'9 9.0
2014-Sep-24 05:33N 48°43' W 123°11'8 8.1
2014-Sep-24 04:33N 48°35' W 123°13'9 9.0
2014-Sep-24 03:34N 48°26' W 123°10'8 7.9
2014-Sep-24 02:33N 48°22' W 123°20'5 5.4
2014-Sep-24 01:33N 48°19' W 123°27'9 9.2
2014-Sep-24 00:33N 48°24' W 123°16'4 4.4
2014-Sep-23 23:33N 48°28' W 123°14'1 0.5
2014-Sep-23 22:33N 48°29' W 123°15'1 1.2
2014-Sep-23 21:33N 48°28' W 123°15'0 0.2
2014-Sep-23 20:33N 48°27' W 123°15'7 6.9
2014-Sep-23 19:33N 48°22' W 123°21'5 5.3
2014-Sep-23 18:33N 48°26' W 123°26'0 0.2
2014-Sep-23 17:33N 48°26' W 123°26'0 0.5
2014-Sep-23 16:33N 48°26' W 123°27'0 0.1
2014-Sep-23 15:33N 48°26' W 123°27'4 4.3
2014-Sep-23 14:33N 48°23' W 123°23'10 9.6
2014-Sep-23 13:33N 48°30' W 123°13'1111.2
2014-Sep-23 12:33N 48°41' W 123°16'9 8.9
2014-Sep-23 11:33N 48°42' W 123°29'8 7.7
2014-Sep-23 10:33N 48°44' W 123°18'1111.3
2014-Sep-23 09:33N 48°34' W 123°12'1110.6
2014-Sep-23 08:34N 48°23' W 123°14'3 3.0
2014-Sep-23 07:34N 48°23' W 123°18'8 8.5
2014-Sep-23 06:33N 48°31' W 123°13'1312.5
2014-Sep-23 05:33N 48°43' W 123°17'8 7.7
2014-Sep-23 04:33N 48°43' W 123°28'8 8.5
2014-Sep-23 03:34N 48°43' W 123°15'1010.0
2014-Sep-23 02:33N 48°33' W 123°12'10 9.8
2014-Sep-23 01:33N 48°23' W 123°13'5 5.3
2014-Sep-23 00:33N 48°20' W 123°19'  

Dump ship's entire track history